createdAt,value
2022-10-31T00:01:50.885Z,101368.66
2022-10-31T00:07:00.426Z,101383.91
2022-10-31T00:11:59.433Z,101395.09
2022-10-31T00:17:01.135Z,101406.25
2022-10-31T00:22:00.180Z,101404.19
2022-10-31T00:27:02.067Z,101418.94
2022-10-31T00:32:00.883Z,101395.13
2022-10-31T00:37:03.080Z,101374.78
2022-10-31T00:42:01.548Z,101389.38
2022-10-31T00:47:02.837Z,101383.97
2022-10-31T00:52:05.118Z,101409.59
2022-10-31T00:57:04.798Z,101403.53
2022-10-31T01:02:06.267Z,101405.47
2022-10-31T01:07:04.098Z,101402.31
2022-10-31T01:12:05.093Z,101383.91
2022-10-31T01:17:06.631Z,101373.66
2022-10-31T01:22:07.884Z,101382.63
2022-10-31T01:27:10.213Z,101394.28
2022-10-31T01:32:10.595Z,101393.25
2022-10-31T01:37:13.655Z,101360.88
2022-10-31T01:42:20.525Z,101371.94
2022-10-31T01:47:36.205Z,101423.22
2022-10-31T01:52:46.646Z,101420.81
2022-10-31T01:57:46.917Z,101422.84
2022-10-31T02:02:47.359Z,101434.81
2022-10-31T02:07:54.890Z,101465.41
2022-10-31T02:13:06.308Z,101437.19
2022-10-31T02:18:09.739Z,101420.59
2022-10-31T02:23:11.901Z,101472.91
2022-10-31T02:28:29.139Z,101474.47
2022-10-31T02:33:40.034Z,101426.63
2022-10-31T02:38:57.878Z,101447.25
2022-10-31T02:44:27.804Z,101434.16
2022-10-31T02:49:46.910Z,101476.94
2022-10-31T02:54:48.318Z,101441.91
2022-10-31T02:59:50.185Z,101485.44
2022-10-31T03:05:02.216Z,101493.25
2022-10-31T03:10:19.529Z,101492.75
2022-10-31T03:15:44.168Z,101494.38
2022-10-31T03:20:51.655Z,101488.53
2022-10-31T03:25:54.985Z,101530.66
2022-10-31T03:31:04.784Z,101536.88
2022-10-31T03:36:16.112Z,101512.63
2022-10-31T03:41:26.654Z,101536.91
2022-10-31T03:52:55.203Z,101538.03
2022-10-31T03:58:06.848Z,101540.66
2022-10-31T04:03:11.933Z,101502.72
2022-10-31T04:08:17.680Z,101518.50
2022-10-31T04:13:23.317Z,101550.00
2022-10-31T04:18:35.977Z,101530.28
2022-10-31T04:24:06.507Z,101510.56
2022-10-31T04:29:05.902Z,101550.63
2022-10-31T04:34:11.992Z,101558.38
2022-10-31T04:39:27.390Z,101511.09
2022-10-31T04:51:17.505Z,101507.41
2022-10-31T04:56:16.910Z,101576.78
2022-10-31T05:01:20.142Z,101570.56
2022-10-31T05:06:20.294Z,101547.53
2022-10-31T05:11:19.025Z,101553.38
2022-10-31T05:16:20.366Z,101567.59
2022-10-31T05:21:54.778Z,101541.69
2022-10-31T05:26:56.017Z,101529.50
2022-10-31T05:31:57.794Z,101586.91
2022-10-31T05:37:32.907Z,101569.75
2022-10-31T05:42:33.460Z,101558.72
2022-10-31T05:47:34.182Z,101577.19
2022-10-31T05:52:59.947Z,101565.53
2022-10-31T05:58:07.144Z,101632.09
2022-10-31T06:08:29.521Z,101605.81
2022-10-31T06:13:41.665Z,101620.72
2022-10-31T06:18:52.370Z,101614.75
2022-10-31T06:23:51.828Z,101637.81
2022-10-31T06:29:08.718Z,101609.59
2022-10-31T06:34:39.056Z,101624.06
2022-10-31T06:39:39.839Z,101651.03
2022-10-31T06:44:40.242Z,101596.06
2022-10-31T06:49:59.951Z,101660.38
2022-10-31T06:55:02.586Z,101642.53
2022-10-31T07:00:10.462Z,101638.94
2022-10-31T07:05:19.909Z,101628.44
2022-10-31T07:10:22.905Z,101663.22
2022-10-31T07:15:36.571Z,101663.88
2022-10-31T07:20:43.427Z,101630.88
2022-10-31T07:25:46.296Z,101610.38
2022-10-31T07:36:36.886Z,101602.34
2022-10-31T07:41:36.457Z,101649.06
2022-10-31T07:46:34.494Z,101646.59
2022-10-31T07:51:54.187Z,101636.56
2022-10-31T07:57:16.088Z,101660.94
2022-10-31T08:07:53.968Z,101653.53
2022-10-31T08:13:14.108Z,101629.50
2022-10-31T08:18:19.962Z,101659.19
2022-10-31T08:24:11.305Z,101642.88
2022-10-31T08:30:12.058Z,101651.03
2022-10-31T08:40:54.801Z,101649.09
2022-10-31T08:46:14.396Z,101658.16
2022-10-31T08:51:26.233Z,101646.47
2022-10-31T08:56:29.498Z,101636.53
2022-10-31T09:01:39.341Z,101684.81
2022-10-31T09:06:50.418Z,101658.03
2022-10-31T09:12:07.249Z,101664.84
2022-10-31T09:17:24.194Z,101657.25
2022-10-31T09:23:21.188Z,101654.34
2022-10-31T09:28:49.104Z,101657.16
2022-10-31T09:33:52.627Z,101644.66
2022-10-31T09:39:09.543Z,101613.16
2022-10-31T09:44:44.449Z,101660.72
2022-10-31T09:50:13.886Z,101673.22
2022-10-31T09:55:22.184Z,101668.50
2022-10-31T10:00:32.341Z,101656.28
2022-10-31T10:06:02.653Z,101663.41
2022-10-31T10:11:37.017Z,101653.00
2022-10-31T10:17:34.246Z,101643.97
2022-10-31T10:22:48.545Z,101646.25
2022-10-31T10:27:47.242Z,101642.97
2022-10-31T10:32:50.985Z,101642.81
2022-10-31T10:37:54.088Z,101637.94
2022-10-31T10:43:22.391Z,101635.91
2022-10-31T10:48:32.303Z,101626.91
2022-10-31T10:54:10.756Z,101625.63
2022-10-31T10:59:21.640Z,101618.28
2022-10-31T11:04:25.671Z,101613.84
2022-10-31T11:09:23.381Z,101613.38
2022-10-31T11:14:22.479Z,101612.97
2022-10-31T11:19:22.022Z,101607.44
2022-10-31T11:24:32.295Z,101604.28
2022-10-31T11:29:30.906Z,101597.09
2022-10-31T11:34:42.133Z,101595.22
2022-10-31T11:39:55.188Z,101583.91
2022-10-31T11:44:55.782Z,101574.72
2022-10-31T11:49:55.978Z,101578.97
2022-10-31T11:55:02.851Z,101566.44
2022-10-31T12:00:07.008Z,101563.91
2022-10-31T12:05:19.264Z,101563.09
2022-10-31T12:10:28.736Z,101562.97
2022-10-31T12:15:38.526Z,101562.09
2022-10-31T12:20:37.443Z,101559.44
2022-10-31T12:26:14.806Z,101565.50
2022-10-31T12:31:42.446Z,101560.19
2022-10-31T12:36:44.748Z,101557.94
2022-10-31T12:41:57.480Z,101561.16
2022-10-31T12:47:16.079Z,101554.41
2022-10-31T12:52:29.700Z,101560.88
2022-10-31T12:58:04.313Z,101552.72
2022-10-31T13:03:01.613Z,101560.53
2022-10-31T13:08:05.832Z,101555.16
2022-10-31T13:13:17.979Z,101551.88
2022-10-31T13:18:34.871Z,101562.06
2022-10-31T13:23:55.277Z,101559.81
2022-10-31T13:29:10.395Z,101561.41
2022-10-31T13:40:21.429Z,101555.81
2022-10-31T13:45:57.874Z,101558.53
2022-10-31T13:50:59.554Z,101555.06
2022-10-31T13:56:13.211Z,101560.03
2022-10-31T14:01:21.748Z,101555.84
2022-10-31T14:06:21.963Z,101570.78
2022-10-31T14:11:37.309Z,101558.59
2022-10-31T14:16:41.824Z,101561.56
2022-10-31T14:21:44.216Z,101563.72
2022-10-31T14:27:02.135Z,101566.13
2022-10-31T14:32:13.170Z,101568.53
2022-10-31T14:37:11.803Z,101552.75
2022-10-31T14:42:32.617Z,101563.44
2022-10-31T14:47:37.714Z,101560.50
2022-10-31T14:52:39.152Z,101557.06
2022-10-31T14:57:42.646Z,101568.38
2022-10-31T15:02:47.181Z,101565.31
2022-10-31T15:07:58.854Z,101557.78
2022-10-31T15:12:57.978Z,101561.28
2022-10-31T15:17:58.014Z,101564.16
2022-10-31T15:23:00.437Z,101569.66
2022-10-31T15:28:01.177Z,101569.09
2022-10-31T15:32:59.476Z,101574.59
2022-10-31T15:37:59.598Z,101574.38
2022-10-31T15:43:08.818Z,101573.78
2022-10-31T15:48:23.740Z,101581.25
2022-10-31T15:59:27.529Z,101593.22
2022-10-31T16:04:26.520Z,101593.63
2022-10-31T16:09:28.167Z,101595.81
2022-10-31T16:14:35.400Z,101601.88
2022-10-31T16:19:34.631Z,101606.69
2022-10-31T16:24:36.549Z,101616.19
2022-10-31T16:29:51.031Z,101620.19
2022-10-31T16:35:00.871Z,101615.25
2022-10-31T16:40:02.682Z,101625.97
2022-10-31T16:45:01.583Z,101623.06
2022-10-31T16:50:28.100Z,101628.53
2022-10-31T16:55:36.087Z,101633.56
2022-10-31T17:00:49.103Z,101640.59
2022-10-31T17:05:53.145Z,101641.53
2022-10-31T17:11:06.110Z,101639.41
2022-10-31T17:16:09.529Z,101644.38
2022-10-31T17:21:21.215Z,101648.13
2022-10-31T17:26:24.142Z,101653.53
2022-10-31T17:31:34.033Z,101657.44
2022-10-31T17:36:44.093Z,101652.75
2022-10-31T17:41:54.584Z,101658.94
2022-10-31T17:46:56.637Z,101656.44
2022-10-31T17:51:55.455Z,101664.63
2022-10-31T18:02:22.635Z,101673.81
2022-10-31T18:07:30.595Z,101671.16
2022-10-31T18:12:32.908Z,101668.81
2022-10-31T18:17:32.733Z,101669.31
2022-10-31T18:22:32.018Z,101680.50
2022-10-31T18:27:33.939Z,101678.22
2022-10-31T18:32:38.788Z,101680.56
2022-10-31T18:37:37.116Z,101674.53
2022-10-31T18:42:38.688Z,101661.06
2022-10-31T18:47:41.292Z,101690.59
2022-10-31T18:52:43.703Z,101694.72
2022-10-31T18:57:45.008Z,101696.91
2022-10-31T19:02:43.300Z,101707.81
2022-10-31T19:07:46.735Z,101702.06
2022-10-31T19:12:47.137Z,101700.44
2022-10-31T19:17:50.788Z,101698.31
2022-10-31T19:22:55.652Z,101705.09
2022-10-31T19:27:58.911Z,101706.44
2022-10-31T19:33:02.463Z,101703.16
2022-10-31T19:38:05.035Z,101702.53
2022-10-31T19:48:23.326Z,101717.03
2022-10-31T19:53:30.171Z,101714.28
2022-10-31T19:58:32.688Z,101718.94
2022-10-31T20:03:32.583Z,101713.38
2022-10-31T20:08:38.512Z,101716.31
2022-10-31T20:14:07.704Z,101723.75
2022-10-31T20:19:14.343Z,101721.47
2022-10-31T20:24:13.178Z,101724.13
2022-10-31T20:29:21.950Z,101728.75
2022-10-31T20:34:20.452Z,101728.41
2022-10-31T20:39:21.467Z,101733.03
2022-10-31T20:44:20.589Z,101736.88
2022-10-31T20:49:20.951Z,101724.38
2022-10-31T20:54:22.824Z,101729.16
2022-10-31T20:59:24.878Z,101739.84
2022-10-31T21:04:23.814Z,101739.03
2022-10-31T21:09:25.302Z,101736.25
2022-10-31T21:14:26.155Z,101745.28
2022-10-31T21:19:26.107Z,101742.50
2022-10-31T21:24:28.199Z,101742.16
2022-10-31T21:29:39.818Z,101741.69
2022-10-31T21:34:39.523Z,101742.63
2022-10-31T21:39:38.899Z,101741.38
2022-10-31T21:44:44.548Z,101750.56
2022-10-31T21:49:46.717Z,101745.31
2022-10-31T21:54:45.540Z,101744.13
2022-10-31T21:59:54.453Z,101750.72
2022-10-31T22:04:54.631Z,101762.72
2022-10-31T22:09:53.939Z,101770.56
2022-10-31T22:14:53.101Z,101771.41
2022-10-31T22:19:55.043Z,101769.41
2022-10-31T22:24:55.017Z,101767.25
2022-10-31T22:29:56.775Z,101784.06
2022-10-31T22:34:57.767Z,101782.91
2022-10-31T22:46:06.627Z,101785.84
2022-10-31T22:51:16.065Z,101787.50
2022-10-31T22:56:19.040Z,101792.75
2022-10-31T23:01:22.372Z,101789.50
2022-10-31T23:06:28.148Z,101782.13
2022-10-31T23:11:42.025Z,101792.47
2022-10-31T23:17:03.537Z,101793.44
2022-10-31T23:22:07.427Z,101794.25
2022-10-31T23:27:20.322Z,101797.84
2022-10-31T23:37:38.758Z,101803.03
2022-10-31T23:42:39.987Z,101796.81
2022-10-31T23:47:43.404Z,101805.44
2022-10-31T23:52:44.295Z,101811.28
2022-10-31T23:57:42.528Z,101808.16
